createdAt,value
2022-11-10T00:02:44.823Z,15.13
2022-11-10T00:05:48.952Z,13.38
2022-11-10T00:08:53.432Z,13.05
2022-11-10T00:11:57.962Z,13.93
2022-11-10T00:15:20.895Z,13.13
2022-11-10T00:21:28.964Z,12.45
2022-11-10T00:24:33.225Z,12.55
2022-11-10T00:27:37.984Z,13.32
2022-11-10T00:30:46.702Z,12.63
2022-11-10T00:33:51.616Z,13.13
2022-11-10T00:36:55.842Z,11.52
2022-11-10T00:40:00.074Z,12.82
2022-11-10T00:43:04.429Z,12.57
2022-11-10T00:46:08.745Z,12.48
2022-11-10T00:49:13.114Z,13.77
2022-11-10T00:52:17.516Z,16.55
2022-11-10T00:55:21.752Z,15.48
2022-11-10T00:58:26.203Z,14.00
2022-11-10T01:01:30.601Z,14.20
2022-11-10T01:04:34.674Z,13.38
2022-11-10T01:07:39.517Z,13.90
2022-11-10T01:10:43.803Z,14.40
2022-11-10T01:13:50.467Z,13.82
2022-11-10T01:16:54.815Z,14.35
2022-11-10T01:19:59.551Z,13.55
2022-11-10T01:23:03.792Z,21.85
2022-11-10T01:26:08.864Z,15.32
2022-11-10T01:29:13.278Z,15.10
2022-11-10T01:32:17.487Z,13.55
2022-11-10T01:35:22.216Z,13.73
2022-11-10T01:38:31.819Z,14.10
2022-11-10T01:41:36.276Z,14.95
2022-11-10T01:44:42.050Z,14.98
2022-11-10T01:47:46.683Z,15.75
2022-11-10T01:50:51.175Z,14.57
2022-11-10T01:54:09.583Z,15.13
2022-11-10T01:57:15.997Z,15.60
2022-11-10T02:00:21.134Z,15.68
2022-11-10T02:03:37.119Z,19.25
2022-11-10T02:06:43.594Z,23.38
2022-11-10T02:09:48.084Z,14.95
2022-11-10T02:12:52.705Z,14.85
2022-11-10T02:15:57.267Z,14.05
2022-11-10T02:19:23.391Z,14.02
2022-11-10T02:22:27.760Z,14.95
2022-11-10T02:25:32.962Z,14.75
2022-11-10T02:28:38.224Z,15.15
2022-11-10T02:31:42.669Z,14.98
2022-11-10T02:34:46.860Z,15.20
2022-11-10T02:37:51.141Z,16.50
2022-11-10T02:40:55.484Z,14.68
2022-11-10T02:44:00.462Z,16.05
2022-11-10T02:47:05.210Z,14.73
2022-11-10T02:50:09.524Z,15.13
2022-11-10T02:53:13.974Z,13.35
2022-11-10T02:56:18.890Z,14.63
2022-11-10T02:59:23.578Z,14.82
2022-11-10T03:02:32.056Z,14.48
2022-11-10T03:05:36.762Z,19.10
2022-11-10T03:08:41.020Z,16.33
2022-11-10T03:11:45.244Z,16.45
2022-11-10T03:14:49.972Z,15.98
2022-11-10T03:17:55.044Z,14.75
2022-11-10T03:20:59.753Z,16.80
2022-11-10T03:24:04.299Z,16.23
2022-11-10T03:27:08.754Z,15.02
2022-11-10T03:30:13.124Z,14.25
2022-11-10T03:33:18.155Z,16.77
2022-11-10T03:36:22.534Z,15.60
2022-11-10T03:39:26.962Z,15.07
2022-11-10T03:42:31.333Z,16.15
2022-11-10T03:45:35.743Z,15.93
2022-11-10T03:48:39.880Z,16.40
2022-11-10T03:51:44.119Z,15.15
2022-11-10T03:54:48.553Z,17.25
2022-11-10T03:57:52.696Z,16.48
2022-11-10T04:00:57.724Z,16.42
2022-11-10T04:04:01.871Z,16.40
2022-11-10T04:07:24.398Z,17.85
2022-11-10T04:10:28.964Z,17.30
2022-11-10T04:13:51.815Z,16.80
2022-11-10T04:20:02.491Z,16.13
2022-11-10T04:23:25.693Z,16.73
2022-11-10T04:26:30.198Z,16.60
2022-11-10T04:29:34.824Z,16.65
2022-11-10T04:32:38.913Z,17.65
2022-11-10T04:35:43.379Z,17.25
2022-11-10T04:38:49.114Z,19.08
2022-11-10T04:41:54.447Z,18.27
2022-11-10T04:45:01.814Z,18.85
2022-11-10T04:48:06.062Z,18.65
2022-11-10T04:51:11.681Z,18.95
2022-11-10T04:54:16.429Z,17.48
2022-11-10T04:57:20.916Z,19.00
2022-11-10T05:00:25.811Z,18.50
2022-11-10T05:03:30.620Z,19.55
2022-11-10T05:06:34.750Z,18.08
2022-11-10T05:09:39.405Z,20.40
2022-11-10T05:12:43.468Z,19.90
2022-11-10T05:15:47.927Z,23.02
2022-11-10T05:18:54.249Z,22.30
2022-11-10T05:21:58.597Z,21.88
2022-11-10T05:25:03.102Z,19.98
2022-11-10T05:28:09.073Z,21.13
2022-11-10T05:31:13.612Z,21.70
2022-11-10T05:34:18.548Z,20.35
2022-11-10T05:37:23.027Z,21.02
2022-11-10T05:40:27.525Z,20.98
2022-11-10T05:43:31.688Z,21.35
2022-11-10T05:46:36.027Z,25.52
2022-11-10T05:49:40.932Z,26.27
2022-11-10T05:52:50.360Z,30.02
2022-11-10T05:55:54.753Z,25.38
2022-11-10T05:58:58.986Z,23.60
2022-11-10T06:02:03.386Z,22.88
2022-11-10T06:05:07.882Z,23.60
2022-11-10T06:08:12.807Z,23.30
2022-11-10T06:11:17.491Z,20.08
2022-11-10T06:14:22.155Z,20.50
2022-11-10T06:17:26.734Z,22.58
2022-11-10T06:20:31.114Z,21.63
2022-11-10T06:23:35.287Z,20.98
2022-11-10T06:26:39.912Z,19.55
2022-11-10T06:29:44.416Z,20.50
2022-11-10T06:32:49.694Z,20.20
2022-11-10T06:35:54.247Z,19.50
2022-11-10T06:38:58.657Z,21.33
2022-11-10T06:42:03.051Z,23.42
2022-11-10T06:45:07.979Z,20.35
2022-11-10T06:48:16.454Z,22.27
2022-11-10T06:51:21.743Z,21.60
2022-11-10T06:54:25.928Z,19.85
2022-11-10T06:57:30.280Z,21.88
2022-11-10T07:00:35.563Z,22.05
2022-11-10T07:03:58.535Z,20.35
2022-11-10T07:07:11.144Z,22.75
2022-11-10T07:10:16.186Z,22.48
2022-11-10T07:13:23.850Z,21.85
2022-11-10T07:16:30.393Z,21.52
2022-11-10T07:19:35.055Z,21.48
2022-11-10T07:22:39.766Z,23.40
2022-11-10T07:25:45.456Z,23.92
2022-11-10T07:28:53.831Z,24.05
2022-11-10T07:31:58.898Z,23.90
2022-11-10T07:35:03.281Z,24.60
2022-11-10T07:38:17.013Z,23.67
2022-11-10T07:41:22.262Z,22.58
2022-11-10T07:44:27.913Z,23.52
2022-11-10T07:47:32.545Z,22.80
2022-11-10T07:50:37.219Z,22.85
2022-11-10T07:53:42.167Z,22.88
2022-11-10T07:56:47.707Z,22.17
2022-11-10T07:59:56.997Z,21.27
2022-11-10T08:03:10.397Z,20.27
2022-11-10T08:06:15.615Z,21.80
2022-11-10T08:09:20.033Z,23.98
2022-11-10T08:12:27.521Z,21.70
2022-11-10T08:15:34.627Z,23.20
2022-11-10T08:18:39.048Z,22.25
2022-11-10T08:21:43.619Z,23.10
2022-11-10T08:24:48.558Z,24.17
2022-11-10T08:28:08.124Z,22.65
2022-11-10T08:31:12.200Z,23.02
2022-11-10T08:34:16.774Z,22.02
2022-11-10T08:37:21.591Z,24.27
2022-11-10T08:40:29.090Z,22.38
2022-11-10T08:43:33.699Z,21.83
2022-11-10T08:46:38.275Z,20.55
2022-11-10T08:49:42.297Z,22.40
2022-11-10T08:52:46.798Z,21.40
2022-11-10T08:55:53.386Z,21.23
2022-11-10T08:58:57.577Z,20.98
2022-11-10T09:02:02.170Z,20.73
2022-11-10T09:05:07.921Z,20.33
2022-11-10T09:08:13.442Z,21.63
2022-11-10T09:11:18.313Z,22.40
2022-11-10T09:14:23.560Z,21.77
2022-11-10T09:17:28.902Z,22.63
2022-11-10T09:20:35.845Z,20.83
2022-11-10T09:23:41.356Z,19.52
2022-11-10T09:26:47.690Z,21.38
2022-11-10T09:29:52.111Z,21.50
2022-11-10T09:32:58.000Z,21.15
2022-11-10T09:36:02.915Z,21.67
2022-11-10T09:39:07.998Z,23.02
2022-11-10T09:42:41.939Z,22.35
2022-11-10T09:45:48.648Z,22.00
2022-11-10T09:49:36.071Z,20.20
2022-11-10T09:52:41.459Z,22.45
2022-11-10T09:55:51.005Z,21.67
2022-11-10T09:58:55.828Z,21.10
2022-11-10T10:02:15.682Z,20.17
2022-11-10T10:05:47.929Z,20.27
2022-11-10T10:08:55.480Z,19.58
2022-11-10T10:12:25.645Z,19.20
2022-11-10T10:15:45.259Z,20.10
2022-11-10T10:19:11.550Z,23.50
2022-11-10T10:22:32.971Z,22.90
2022-11-10T10:25:39.626Z,20.77
2022-11-10T10:28:46.398Z,19.80
2022-11-10T10:31:52.549Z,22.23
2022-11-10T10:34:57.813Z,21.50
2022-11-10T10:38:04.755Z,29.58
2022-11-10T10:41:29.992Z,27.65
2022-11-10T10:44:34.538Z,30.38
2022-11-10T10:47:39.785Z,28.52
2022-11-10T10:50:46.440Z,29.85
2022-11-10T10:53:50.932Z,26.50
2022-11-10T10:57:23.253Z,25.80
2022-11-10T11:00:29.414Z,23.10
2022-11-10T11:03:42.228Z,33.38
2022-11-10T11:07:19.058Z,29.25
2022-11-10T11:10:33.195Z,32.33
2022-11-10T11:13:38.417Z,23.98
2022-11-10T11:17:00.290Z,22.63
2022-11-10T11:20:13.274Z,21.27
2022-11-10T11:23:29.936Z,21.55
2022-11-10T11:26:47.802Z,21.10
2022-11-10T11:30:06.494Z,21.23
2022-11-10T11:33:36.836Z,20.02
2022-11-10T11:36:44.524Z,18.63
2022-11-10T11:40:15.439Z,18.02
2022-11-10T11:43:35.951Z,19.23
2022-11-10T11:46:49.695Z,14.77
2022-11-10T11:50:24.346Z,12.25
2022-11-10T11:54:05.571Z,13.75
2022-11-10T11:57:39.692Z,12.43
2022-11-10T12:00:50.906Z,12.02
2022-11-10T12:04:10.792Z,25.83
2022-11-10T12:07:24.358Z,20.33
2022-11-10T12:10:52.609Z,12.02
2022-11-10T12:16:58.502Z,13.80
2022-11-10T12:20:28.067Z,11.10
2022-11-10T12:24:06.008Z,10.90
2022-11-10T12:27:28.879Z,10.45
2022-11-10T12:30:36.686Z,10.15
2022-11-10T12:33:50.874Z,10.65
2022-11-10T12:36:58.228Z,10.10
2022-11-10T12:40:12.831Z,9.95
2022-11-10T12:43:25.320Z,10.50
2022-11-10T12:46:30.135Z,10.55
2022-11-10T12:49:39.041Z,10.18
2022-11-10T12:53:15.948Z,9.35
2022-11-10T12:56:31.906Z,9.43
2022-11-10T12:59:39.813Z,9.07
2022-11-10T13:02:46.759Z,9.35
2022-11-10T13:05:57.742Z,10.70
2022-11-10T13:09:03.035Z,9.57
2022-11-10T13:12:10.232Z,9.82
2022-11-10T13:15:39.640Z,12.13
2022-11-10T13:18:52.752Z,12.48
2022-11-10T13:22:00.403Z,9.80
2022-11-10T13:25:49.529Z,9.38
2022-11-10T13:29:02.845Z,12.82
2022-11-10T13:32:07.557Z,10.63
2022-11-10T13:35:30.214Z,9.23
2022-11-10T13:38:37.040Z,9.93
2022-11-10T13:42:06.258Z,9.10
2022-11-10T13:45:37.078Z,9.63
2022-11-10T13:48:47.230Z,10.15
2022-11-10T13:52:10.979Z,11.38
2022-11-10T13:55:27.308Z,11.43
2022-11-10T13:58:34.581Z,12.40
2022-11-10T14:01:41.137Z,12.23
2022-11-10T14:04:46.585Z,12.38
2022-11-10T14:07:52.626Z,12.38
2022-11-10T14:11:03.764Z,11.77
2022-11-10T14:14:24.571Z,10.27
2022-11-10T14:17:34.002Z,14.27
2022-11-10T14:20:44.571Z,13.18
2022-11-10T14:23:54.055Z,12.40
2022-11-10T14:27:05.110Z,13.27
2022-11-10T14:30:21.511Z,12.77
2022-11-10T14:33:27.533Z,14.75
2022-11-10T14:36:32.660Z,11.90
2022-11-10T14:39:37.271Z,12.40
2022-11-10T14:42:41.792Z,12.13
2022-11-10T14:45:51.923Z,12.73
2022-11-10T14:48:58.730Z,13.15
2022-11-10T14:52:03.569Z,12.10
2022-11-10T14:55:20.473Z,12.48
2022-11-10T14:58:31.148Z,12.27
2022-11-10T15:01:39.054Z,12.50
2022-11-10T15:04:46.226Z,11.85
2022-11-10T15:07:56.551Z,13.88
2022-11-10T15:11:01.076Z,16.33
2022-11-10T15:14:05.770Z,19.48
2022-11-10T15:17:14.627Z,21.63
2022-11-10T15:20:29.605Z,22.77
2022-11-10T15:23:37.799Z,38.88
2022-11-10T15:26:42.815Z,37.10
2022-11-10T15:29:48.010Z,42.13
2022-11-10T15:32:54.820Z,41.22
2022-11-10T15:36:25.030Z,45.00
2022-11-10T15:39:30.397Z,38.85
2022-11-10T15:42:35.133Z,41.63
2022-11-10T15:45:40.148Z,38.92
2022-11-10T15:48:48.067Z,35.17
2022-11-10T15:51:57.430Z,32.33
2022-11-10T15:55:02.549Z,28.13
2022-11-10T15:58:19.430Z,27.80
2022-11-10T16:01:24.976Z,20.85
2022-11-10T16:04:29.627Z,20.48
2022-11-10T16:07:34.782Z,20.17
2022-11-10T16:10:41.511Z,20.13
2022-11-10T16:13:46.836Z,19.70
2022-11-10T16:16:51.465Z,17.50
2022-11-10T16:19:55.740Z,15.57
2022-11-10T16:23:00.806Z,15.50
2022-11-10T16:26:07.559Z,15.35
2022-11-10T16:29:15.620Z,14.55
2022-11-10T16:32:20.213Z,14.95
2022-11-10T16:35:25.971Z,12.88
2022-11-10T16:38:32.403Z,13.73
2022-11-10T16:41:37.457Z,17.13
2022-11-10T16:44:42.778Z,14.95
2022-11-10T16:47:50.571Z,17.73
2022-11-10T16:50:58.072Z,14.25
2022-11-10T16:54:02.565Z,15.75
2022-11-10T16:57:12.734Z,13.45
2022-11-10T17:00:18.214Z,13.32
2022-11-10T17:03:35.594Z,15.60
2022-11-10T17:06:40.614Z,15.07
2022-11-10T17:09:45.271Z,15.82
2022-11-10T17:12:49.981Z,16.42
2022-11-10T17:16:05.106Z,17.83
2022-11-10T17:19:17.593Z,16.90
2022-11-10T17:22:23.819Z,18.92
2022-11-10T17:25:32.500Z,15.52
2022-11-10T17:28:37.290Z,16.13
2022-11-10T17:31:42.044Z,14.77
2022-11-10T17:34:46.619Z,15.80
2022-11-10T17:37:55.063Z,15.10
2022-11-10T17:40:59.821Z,14.07
2022-11-10T17:44:04.713Z,15.88
2022-11-10T17:47:09.397Z,13.77
2022-11-10T17:50:15.687Z,9.82
2022-11-10T17:53:23.890Z,12.02
2022-11-10T17:56:29.846Z,12.85
2022-11-10T17:59:34.636Z,11.77
2022-11-10T18:02:39.047Z,11.55
2022-11-10T18:05:44.413Z,12.68
2022-11-10T18:08:50.245Z,11.82
2022-11-10T18:11:56.093Z,13.63
2022-11-10T18:15:01.147Z,12.77
2022-11-10T18:18:06.842Z,12.80
2022-11-10T18:21:12.113Z,13.90
2022-11-10T18:24:16.328Z,13.93
2022-11-10T18:27:21.167Z,13.93
2022-11-10T18:30:25.566Z,14.00
2022-11-10T18:33:30.079Z,17.10
2022-11-10T18:36:34.325Z,13.27
2022-11-10T18:39:38.838Z,12.85
2022-11-10T18:42:43.109Z,12.90
2022-11-10T18:45:51.797Z,13.32
2022-11-10T18:48:56.278Z,13.38
2022-11-10T18:52:00.801Z,13.23
2022-11-10T18:55:06.396Z,13.38
2022-11-10T18:58:11.029Z,14.88
2022-11-10T19:01:16.754Z,13.88
2022-11-10T19:04:21.071Z,13.85
2022-11-10T19:07:25.545Z,14.93
2022-11-10T19:10:29.869Z,13.55
2022-11-10T19:13:34.426Z,13.52
2022-11-10T19:16:39.883Z,15.18
2022-11-10T19:19:46.239Z,14.55
2022-11-10T19:22:51.157Z,13.55
2022-11-10T19:26:25.417Z,14.88
2022-11-10T19:29:31.643Z,13.88
2022-11-10T19:32:37.720Z,14.10
2022-11-10T19:35:43.500Z,13.40
2022-11-10T19:38:48.426Z,13.82
2022-11-10T19:41:54.013Z,17.13
2022-11-10T19:44:58.589Z,16.25
2022-11-10T19:48:08.348Z,15.65
2022-11-10T19:51:17.801Z,16.77
2022-11-10T19:54:23.406Z,17.20
2022-11-10T19:57:28.981Z,20.60
2022-11-10T20:00:34.271Z,18.23
2022-11-10T20:03:40.247Z,16.08
2022-11-10T20:06:45.830Z,17.38
2022-11-10T20:09:51.595Z,22.40
2022-11-10T20:12:56.899Z,19.95
2022-11-10T20:16:07.309Z,17.85
2022-11-10T20:19:13.159Z,15.05
2022-11-10T20:22:19.067Z,14.55
2022-11-10T20:25:24.321Z,17.60
2022-11-10T20:28:30.553Z,14.85
2022-11-10T20:31:37.027Z,15.52
2022-11-10T20:34:41.979Z,15.50
2022-11-10T20:37:47.131Z,16.33
2022-11-10T20:41:05.783Z,14.77
2022-11-10T20:44:11.027Z,15.52
2022-11-10T20:47:15.936Z,16.38
2022-11-10T20:50:24.331Z,16.35
2022-11-10T20:53:29.719Z,14.13
2022-11-10T20:56:34.085Z,15.40
2022-11-10T20:59:38.621Z,16.15
2022-11-10T21:02:43.472Z,14.80
2022-11-10T21:05:56.193Z,15.68
2022-11-10T21:09:03.416Z,14.93
2022-11-10T21:12:31.399Z,14.88
2022-11-10T21:15:40.476Z,17.75
2022-11-10T21:18:44.752Z,14.27
2022-11-10T21:21:51.144Z,19.63
2022-11-10T21:24:58.391Z,18.15
2022-11-10T21:28:05.571Z,18.13
2022-11-10T21:31:13.364Z,18.15
2022-11-10T21:34:21.036Z,19.77
2022-11-10T21:37:26.081Z,20.20
2022-11-10T21:40:32.236Z,20.00
2022-11-10T21:43:40.303Z,19.50
2022-11-10T21:46:46.641Z,16.77
2022-11-10T21:49:51.691Z,15.95
2022-11-10T21:52:56.983Z,17.40
2022-11-10T21:56:07.984Z,16.70
2022-11-10T21:59:14.578Z,17.02
2022-11-10T22:02:19.850Z,17.00
2022-11-10T22:05:24.582Z,19.58
2022-11-10T22:08:29.438Z,19.50
2022-11-10T22:11:52.734Z,19.30
2022-11-10T22:15:15.677Z,17.90
2022-11-10T22:18:38.246Z,18.92
2022-11-10T22:21:44.486Z,18.02
2022-11-10T22:24:48.809Z,17.63
2022-11-10T22:27:53.264Z,18.17
2022-11-10T22:30:58.065Z,19.58
2022-11-10T22:34:02.943Z,19.35
2022-11-10T22:37:07.607Z,17.85
2022-11-10T22:40:31.083Z,19.13
2022-11-10T22:43:54.155Z,18.15
2022-11-10T22:46:58.957Z,17.23
2022-11-10T22:50:04.090Z,18.17
2022-11-10T22:53:11.013Z,17.65
2022-11-10T22:56:16.386Z,18.90
2022-11-10T22:59:21.314Z,18.17
2022-11-10T23:02:31.994Z,18.40
2022-11-10T23:05:37.048Z,19.48
2022-11-10T23:08:41.364Z,18.55
2022-11-10T23:11:45.849Z,19.30
2022-11-10T23:14:50.400Z,19.92
2022-11-10T23:17:55.088Z,19.75
2022-11-10T23:21:04.577Z,19.73
2022-11-10T23:24:08.998Z,18.77
2022-11-10T23:27:18.292Z,19.70
2022-11-10T23:30:26.941Z,18.70
2022-11-10T23:33:42.498Z,20.23
2022-11-10T23:36:53.575Z,18.58
2022-11-10T23:39:58.469Z,22.52
2022-11-10T23:43:02.759Z,19.77
2022-11-10T23:46:08.177Z,19.15
2022-11-10T23:49:12.774Z,18.42
2022-11-10T23:52:17.022Z,18.42
2022-11-10T23:55:21.370Z,18.42
2022-11-10T23:58:26.112Z,18.25
